createdAt,value
2023-03-01T00:00:08.844Z,25.88
2023-03-01T00:02:38.589Z,31.27
2023-03-01T00:05:05.762Z,24.58
2023-03-01T00:07:41.399Z,28.08
2023-03-01T00:10:17.592Z,29.98
2023-03-01T00:12:51.889Z,25.30
2023-03-01T00:15:21.358Z,27.20
2023-03-01T00:17:47.958Z,27.60
2023-03-01T00:20:25.517Z,28.02
2023-03-01T00:22:54.896Z,25.30
2023-03-01T00:25:24.354Z,28.90
2023-03-01T00:27:54.016Z,35.30
2023-03-01T00:30:20.683Z,29.17
2023-03-01T00:33:00.098Z,28.35
2023-03-01T00:35:30.382Z,26.92
2023-03-01T00:38:03.036Z,30.38
2023-03-01T00:40:36.158Z,26.55
2023-03-01T00:43:05.688Z,29.95
2023-03-01T00:45:35.607Z,26.67
2023-03-01T00:48:02.176Z,27.27
2023-03-01T00:51:01.799Z,27.23
2023-03-01T00:53:31.421Z,28.83
2023-03-01T00:56:10.333Z,29.77
2023-03-01T01:01:35.163Z,28.05
2023-03-01T01:04:05.687Z,25.58
2023-03-01T01:06:42.901Z,25.77
2023-03-01T01:09:11.730Z,28.88
2023-03-01T01:11:38.355Z,25.95
2023-03-01T01:14:05.199Z,27.35
2023-03-01T01:16:32.215Z,23.55
2023-03-01T01:18:59.076Z,23.60
2023-03-01T01:21:26.834Z,26.77
2023-03-01T01:23:59.732Z,25.73
2023-03-01T01:26:38.861Z,24.98
2023-03-01T01:29:13.447Z,27.27
2023-03-01T01:31:48.993Z,21.98
2023-03-01T01:34:22.091Z,23.70
2023-03-01T01:36:50.912Z,24.50
2023-03-01T01:39:31.531Z,26.92
2023-03-01T01:41:58.148Z,21.85
2023-03-01T01:44:27.421Z,26.05
2023-03-01T01:46:57.859Z,27.75
2023-03-01T01:49:42.666Z,24.08
2023-03-01T01:52:12.482Z,24.10
2023-03-01T01:54:55.080Z,26.40
2023-03-01T01:57:46.534Z,20.67
2023-03-01T02:00:17.025Z,24.47
2023-03-01T02:02:51.107Z,29.33
2023-03-01T02:05:53.291Z,26.50
2023-03-01T02:08:35.090Z,24.65
2023-03-01T02:11:16.807Z,26.38
2023-03-01T02:13:49.943Z,27.77
2023-03-01T02:16:21.379Z,27.20
2023-03-01T02:18:52.745Z,23.75
2023-03-01T02:22:04.280Z,29.20
2023-03-01T02:25:05.396Z,24.23
2023-03-01T02:28:00.664Z,23.15
2023-03-01T02:30:34.948Z,26.35
2023-03-01T02:33:04.310Z,20.35
2023-03-01T02:35:38.340Z,24.63
2023-03-01T02:38:15.512Z,22.58
2023-03-01T02:40:50.703Z,26.88
2023-03-01T02:43:26.194Z,22.75
2023-03-01T02:46:09.212Z,26.70
2023-03-01T02:48:53.604Z,24.80
2023-03-01T02:51:52.581Z,27.55
2023-03-01T02:54:32.880Z,29.65
2023-03-01T02:57:00.206Z,25.13
2023-03-01T02:59:43.915Z,26.80
2023-03-01T03:05:22.156Z,25.77
2023-03-01T03:07:57.106Z,28.67
2023-03-01T03:10:36.373Z,22.52
2023-03-01T03:16:08.086Z,34.15
2023-03-01T03:18:42.367Z,26.00
2023-03-01T03:21:19.521Z,21.17
2023-03-01T03:23:48.794Z,27.25
2023-03-01T03:26:18.274Z,27.55
2023-03-01T03:28:47.408Z,24.90
2023-03-01T03:31:20.721Z,24.75
2023-03-01T03:34:00.050Z,26.52
2023-03-01T03:36:31.543Z,22.83
2023-03-01T03:39:03.045Z,25.48
2023-03-01T03:41:39.418Z,30.17
2023-03-01T03:44:08.182Z,30.73
2023-03-01T03:46:41.705Z,26.17
2023-03-01T03:49:18.361Z,27.13
2023-03-01T03:51:46.906Z,28.35
2023-03-01T03:54:13.501Z,26.05
2023-03-01T03:56:46.951Z,22.60
2023-03-01T03:59:14.370Z,25.17
2023-03-01T04:01:41.017Z,25.58
2023-03-01T04:04:10.175Z,22.23
2023-03-01T04:06:42.885Z,26.73
2023-03-01T04:09:18.418Z,23.63
2023-03-01T04:11:46.748Z,23.90
2023-03-01T04:14:13.293Z,31.48
2023-03-01T04:16:39.876Z,21.48
2023-03-01T04:19:06.516Z,22.98
2023-03-01T04:21:35.181Z,21.77
2023-03-01T04:24:06.367Z,26.33
2023-03-01T04:26:41.379Z,25.80
2023-03-01T04:29:14.205Z,24.80
2023-03-01T04:31:41.815Z,27.38
2023-03-01T04:34:08.455Z,26.63
2023-03-01T04:36:35.691Z,24.90
2023-03-01T04:39:08.515Z,24.40
2023-03-01T04:41:45.203Z,28.20
2023-03-01T04:44:19.495Z,25.73
2023-03-01T04:46:46.150Z,26.30
2023-03-01T04:49:21.149Z,22.85
2023-03-01T04:51:47.794Z,26.02
2023-03-01T04:54:20.983Z,23.55
2023-03-01T04:56:50.650Z,27.08
2023-03-01T04:59:17.198Z,27.55
2023-03-01T05:04:27.694Z,25.58
2023-03-01T05:06:54.340Z,25.08
2023-03-01T05:09:26.842Z,25.98
2023-03-01T05:11:53.445Z,25.85
2023-03-01T05:14:19.992Z,28.52
2023-03-01T05:16:46.589Z,26.42
2023-03-01T05:19:13.314Z,28.58
2023-03-01T05:21:43.050Z,24.70
2023-03-01T05:24:12.530Z,26.23
2023-03-01T05:26:39.190Z,24.58
2023-03-01T05:29:05.789Z,29.65
2023-03-01T05:31:32.507Z,23.98
2023-03-01T05:33:59.093Z,27.63
2023-03-01T05:36:25.707Z,28.58
2023-03-01T05:38:52.343Z,28.00
2023-03-01T05:41:25.101Z,29.50
2023-03-01T05:43:51.759Z,28.35
2023-03-01T05:46:22.407Z,27.67
2023-03-01T05:48:49.037Z,26.58
2023-03-01T05:51:18.041Z,24.27
2023-03-01T05:53:44.734Z,23.90
2023-03-01T05:56:11.385Z,26.85
2023-03-01T05:58:38.068Z,25.92
2023-03-01T06:01:04.801Z,27.45
2023-03-01T06:03:31.378Z,27.30
2023-03-01T06:05:58.816Z,28.38
2023-03-01T06:08:31.616Z,25.27
2023-03-01T06:11:00.786Z,26.80
2023-03-01T06:13:27.605Z,25.20
2023-03-01T06:15:54.312Z,27.58
2023-03-01T06:18:23.780Z,28.60
2023-03-01T06:20:57.285Z,27.20
2023-03-01T06:23:26.855Z,28.85
2023-03-01T06:25:56.990Z,28.27
2023-03-01T06:28:39.002Z,28.67
2023-03-01T06:31:08.494Z,29.38
2023-03-01T06:33:37.785Z,29.27
2023-03-01T06:36:04.668Z,29.73
2023-03-01T06:38:31.218Z,29.38
2023-03-01T06:40:57.837Z,27.38
2023-03-01T06:43:25.016Z,29.45
2023-03-01T06:45:51.984Z,33.30
2023-03-01T06:48:21.661Z,31.45
2023-03-01T06:50:50.865Z,30.92
2023-03-01T06:53:18.337Z,28.08
2023-03-01T06:56:02.845Z,30.30
2023-03-01T06:58:34.498Z,32.25
2023-03-01T07:01:01.180Z,28.08
2023-03-01T07:06:07.432Z,26.90
2023-03-01T07:08:37.149Z,28.10
2023-03-01T07:11:03.995Z,30.08
2023-03-01T07:13:30.976Z,28.02
2023-03-01T07:16:00.592Z,31.35
2023-03-01T07:18:39.538Z,29.00
2023-03-01T07:21:14.693Z,27.95
2023-03-01T07:23:44.688Z,28.55
2023-03-01T07:26:19.328Z,26.75
2023-03-01T07:28:45.925Z,24.75
2023-03-01T07:31:12.540Z,26.90
2023-03-01T07:33:42.207Z,28.30
2023-03-01T07:36:13.479Z,28.33
2023-03-01T07:38:40.142Z,26.77
2023-03-01T07:41:06.778Z,29.50
2023-03-01T07:43:33.397Z,31.25
2023-03-01T07:46:01.595Z,33.20
2023-03-01T07:48:29.194Z,29.35
2023-03-01T07:50:59.119Z,29.30
2023-03-01T07:53:25.972Z,27.55
2023-03-01T07:56:06.822Z,31.83
2023-03-01T07:58:41.816Z,33.50
2023-03-01T08:01:11.553Z,32.97
2023-03-01T08:03:38.629Z,29.80
2023-03-01T08:06:08.091Z,30.63
2023-03-01T08:08:35.581Z,36.20
2023-03-01T08:11:04.867Z,34.88
2023-03-01T08:13:32.025Z,40.35
2023-03-01T08:16:25.789Z,35.83
2023-03-01T08:19:02.638Z,41.30
2023-03-01T08:21:30.765Z,36.40
2023-03-01T08:24:00.134Z,40.70
2023-03-01T08:26:32.979Z,36.15
2023-03-01T08:29:11.405Z,37.35
2023-03-01T08:31:41.369Z,37.08
2023-03-01T08:34:19.903Z,37.20
2023-03-01T08:36:50.874Z,41.75
2023-03-01T08:39:24.583Z,41.55
2023-03-01T08:41:52.240Z,38.00
2023-03-01T08:44:27.351Z,40.00
2023-03-01T08:47:06.136Z,37.30
2023-03-01T08:49:33.630Z,38.78
2023-03-01T08:52:27.185Z,43.65
2023-03-01T08:54:53.846Z,37.67
2023-03-01T08:57:20.451Z,36.53
2023-03-01T08:59:47.107Z,36.05
2023-03-01T09:02:17.809Z,36.55
2023-03-01T09:07:45.613Z,33.95
2023-03-01T09:10:21.028Z,35.50
2023-03-01T09:12:47.637Z,34.53
2023-03-01T09:15:24.699Z,35.58
2023-03-01T09:18:02.017Z,38.70
2023-03-01T09:20:39.654Z,34.42
2023-03-01T09:23:07.469Z,39.30
2023-03-01T09:25:37.375Z,36.75
2023-03-01T09:30:51.349Z,32.55
2023-03-01T09:33:24.935Z,31.63
2023-03-01T09:36:01.206Z,31.83
2023-03-01T09:38:33.639Z,25.33
2023-03-01T09:41:01.700Z,31.20
2023-03-01T09:43:52.017Z,25.38
2023-03-01T09:46:18.769Z,26.85
2023-03-01T09:49:10.457Z,28.30
2023-03-01T09:51:38.012Z,26.20
2023-03-01T09:54:06.420Z,28.00
2023-03-01T09:56:47.830Z,28.70
2023-03-01T09:59:37.847Z,26.90
2023-03-01T10:02:41.354Z,27.88
2023-03-01T10:05:32.985Z,25.63
2023-03-01T10:08:11.648Z,28.83
2023-03-01T10:10:54.966Z,26.98
2023-03-01T10:13:52.897Z,24.70
2023-03-01T10:17:02.405Z,24.58
2023-03-01T10:19:48.705Z,22.17
2023-03-01T10:22:33.912Z,23.65
2023-03-01T10:25:04.362Z,24.17
2023-03-01T10:27:43.794Z,22.25
2023-03-01T10:30:20.348Z,28.70
2023-03-01T10:32:49.930Z,24.30
2023-03-01T10:35:26.207Z,22.02
2023-03-01T10:38:12.465Z,21.23
2023-03-01T10:40:58.728Z,27.00
2023-03-01T10:43:55.241Z,24.52
2023-03-01T10:46:40.221Z,22.92
2023-03-01T10:49:24.217Z,24.10
2023-03-01T10:51:56.569Z,26.05
2023-03-01T10:54:28.872Z,23.85
2023-03-01T10:56:58.641Z,25.73
2023-03-01T10:59:35.962Z,26.25
2023-03-01T11:02:29.799Z,23.30
2023-03-01T11:05:15.647Z,21.75
2023-03-01T11:07:59.628Z,27.23
2023-03-01T11:10:37.838Z,22.45
2023-03-01T11:13:19.424Z,24.10
2023-03-01T11:16:07.122Z,22.05
2023-03-01T11:19:15.838Z,23.85
2023-03-01T11:21:48.278Z,23.27
2023-03-01T11:25:08.893Z,24.33
2023-03-01T11:27:44.488Z,23.70
2023-03-01T11:30:30.672Z,23.00
2023-03-01T11:33:16.816Z,24.73
2023-03-01T11:36:23.146Z,20.40
2023-03-01T11:38:51.191Z,23.38
2023-03-01T11:41:42.031Z,23.13
2023-03-01T11:44:18.026Z,23.48
2023-03-01T11:46:53.289Z,22.25
2023-03-01T11:49:21.035Z,21.60
2023-03-01T11:52:10.991Z,21.10
2023-03-01T11:55:15.438Z,19.77
2023-03-01T11:58:02.224Z,23.42
2023-03-01T12:00:37.897Z,24.25
2023-03-01T12:03:08.056Z,21.83
2023-03-01T12:05:57.833Z,24.98
2023-03-01T12:08:51.623Z,22.30
2023-03-01T12:11:44.590Z,21.67
2023-03-01T12:14:30.006Z,22.83
2023-03-01T12:17:14.805Z,27.13
2023-03-01T12:20:20.250Z,28.38
2023-03-01T12:23:14.675Z,23.85
2023-03-01T12:26:17.538Z,23.05
2023-03-01T12:29:06.037Z,22.80
2023-03-01T12:32:15.712Z,20.63
2023-03-01T12:35:19.794Z,25.63
2023-03-01T12:38:21.986Z,24.48
2023-03-01T12:41:10.789Z,24.90
2023-03-01T12:43:53.472Z,26.02
2023-03-01T12:46:24.838Z,22.15
2023-03-01T12:49:00.402Z,20.77
2023-03-01T12:51:45.071Z,25.02
2023-03-01T12:54:20.864Z,21.75
2023-03-01T12:56:57.538Z,21.40
2023-03-01T12:59:47.937Z,26.38
2023-03-01T13:02:36.137Z,24.48
2023-03-01T13:05:52.145Z,25.10
2023-03-01T13:08:31.284Z,22.23
2023-03-01T13:11:13.693Z,24.20
2023-03-01T13:13:45.925Z,23.92
2023-03-01T13:16:35.951Z,22.33
2023-03-01T13:19:36.501Z,24.02
2023-03-01T13:22:28.891Z,24.65
2023-03-01T13:25:07.502Z,21.52
2023-03-01T13:27:34.181Z,24.02
2023-03-01T13:30:04.568Z,24.75
2023-03-01T13:32:44.669Z,24.10
2023-03-01T13:35:48.699Z,25.05
2023-03-01T13:39:00.995Z,23.00
2023-03-01T13:41:42.735Z,21.40
2023-03-01T13:44:51.712Z,20.88
2023-03-01T13:47:28.494Z,23.00
2023-03-01T13:50:01.463Z,22.08
2023-03-01T13:52:58.777Z,19.55
2023-03-01T13:55:30.972Z,22.30
2023-03-01T13:58:16.341Z,22.33
2023-03-01T14:00:47.031Z,21.33
2023-03-01T14:03:29.230Z,22.13
2023-03-01T14:08:44.947Z,25.08
2023-03-01T14:11:14.601Z,21.58
2023-03-01T14:14:07.272Z,20.98
2023-03-01T14:20:04.600Z,21.88
2023-03-01T14:22:47.120Z,19.15
2023-03-01T14:25:40.959Z,18.58
2023-03-01T14:28:28.776Z,19.50
2023-03-01T14:30:58.163Z,22.20
2023-03-01T14:33:36.873Z,21.23
2023-03-01T14:36:10.569Z,18.90
2023-03-01T14:38:46.054Z,21.48
2023-03-01T14:41:19.762Z,19.90
2023-03-01T14:44:02.479Z,21.15
2023-03-01T14:46:38.260Z,22.10
2023-03-01T14:49:19.986Z,17.75
2023-03-01T14:52:00.641Z,18.13
2023-03-01T14:54:33.571Z,17.92
2023-03-01T14:57:01.575Z,17.52
2023-03-01T14:59:29.244Z,18.83
2023-03-01T15:01:58.808Z,21.27
2023-03-01T15:04:27.267Z,18.63
2023-03-01T15:06:56.605Z,19.25
2023-03-01T15:09:26.554Z,19.88
2023-03-01T15:11:53.246Z,20.50
2023-03-01T15:14:41.026Z,20.30
2023-03-01T15:17:32.145Z,19.60
2023-03-01T15:20:10.641Z,18.13
2023-03-01T15:22:37.939Z,18.63
2023-03-01T15:25:04.901Z,17.38
2023-03-01T15:27:31.616Z,16.95
2023-03-01T15:30:05.937Z,17.75
2023-03-01T15:32:39.722Z,19.42
2023-03-01T15:35:40.579Z,18.38
2023-03-01T15:38:32.245Z,22.60
2023-03-01T15:41:19.905Z,18.95
2023-03-01T15:44:34.956Z,24.38
2023-03-01T15:47:35.303Z,23.02
2023-03-01T15:50:04.503Z,24.08
2023-03-01T15:52:42.390Z,20.00
2023-03-01T15:55:29.144Z,22.17
2023-03-01T15:57:59.760Z,19.90
2023-03-01T16:00:26.586Z,20.95
2023-03-01T16:02:55.952Z,20.05
2023-03-01T16:05:33.012Z,22.95
2023-03-01T16:08:19.157Z,23.00
2023-03-01T16:10:46.897Z,19.27
2023-03-01T16:13:14.700Z,19.23
2023-03-01T16:15:42.504Z,19.90
2023-03-01T16:18:09.201Z,21.30
2023-03-01T16:20:35.786Z,19.58
2023-03-01T16:23:08.714Z,19.45
2023-03-01T16:25:38.568Z,18.70
2023-03-01T16:28:07.309Z,15.98
2023-03-01T16:30:36.076Z,15.93
2023-03-01T16:33:06.279Z,16.08
2023-03-01T16:35:41.576Z,17.55
2023-03-01T16:38:08.414Z,16.85
2023-03-01T16:40:40.951Z,16.25
2023-03-01T16:43:07.655Z,15.75
2023-03-01T16:45:39.338Z,14.77
2023-03-01T16:48:06.747Z,16.90
2023-03-01T16:50:33.444Z,14.40
2023-03-01T16:53:02.527Z,15.43
2023-03-01T16:55:32.449Z,16.52
2023-03-01T16:58:02.112Z,15.50
2023-03-01T17:00:29.109Z,15.80
2023-03-01T17:02:56.450Z,14.50
2023-03-01T17:05:24.321Z,14.30
2023-03-01T17:07:52.612Z,13.77
2023-03-01T17:10:23.477Z,14.02
2023-03-01T17:13:05.729Z,16.38
2023-03-01T17:18:13.345Z,14.23
2023-03-01T17:20:45.738Z,14.15
2023-03-01T17:23:12.350Z,13.73
2023-03-01T17:25:45.278Z,14.05
2023-03-01T17:28:14.319Z,13.93
2023-03-01T17:30:56.077Z,14.55
2023-03-01T17:33:29.337Z,14.10
2023-03-01T17:36:03.709Z,14.02
2023-03-01T17:38:42.102Z,12.30
2023-03-01T17:41:17.634Z,13.13
2023-03-01T17:43:48.258Z,13.25
2023-03-01T17:46:15.993Z,15.35
2023-03-01T17:48:49.227Z,14.50
2023-03-01T17:51:17.730Z,14.43
2023-03-01T17:53:45.729Z,15.30
2023-03-01T17:56:12.540Z,15.48
2023-03-01T17:58:39.254Z,15.75
2023-03-01T18:01:17.857Z,15.40
2023-03-01T18:03:52.739Z,15.32
2023-03-01T18:09:13.089Z,16.70
2023-03-01T18:11:47.992Z,16.30
2023-03-01T18:14:14.777Z,16.30
2023-03-01T18:16:44.269Z,15.68
2023-03-01T18:19:14.207Z,16.33
2023-03-01T18:21:47.957Z,15.73
2023-03-01T18:24:14.671Z,17.80
2023-03-01T18:26:50.036Z,16.38
2023-03-01T18:29:19.161Z,16.88
2023-03-01T18:31:48.536Z,14.68
2023-03-01T18:34:16.753Z,17.38
2023-03-01T18:37:08.756Z,17.75
2023-03-01T18:39:38.177Z,16.10
2023-03-01T18:42:17.086Z,16.10
2023-03-01T18:44:51.200Z,18.38
2023-03-01T18:47:17.789Z,15.82
2023-03-01T18:49:44.391Z,17.55
2023-03-01T18:52:16.790Z,17.40
2023-03-01T18:54:51.096Z,23.50
2023-03-01T18:57:30.376Z,18.85
2023-03-01T19:00:00.007Z,19.17
2023-03-01T19:02:26.657Z,19.05
2023-03-01T19:04:59.311Z,18.38
2023-03-01T19:10:07.109Z,19.92
2023-03-01T19:12:35.435Z,19.15
2023-03-01T19:15:03.691Z,17.65
2023-03-01T19:17:36.309Z,18.17
2023-03-01T19:20:03.083Z,21.60
2023-03-01T19:22:29.762Z,21.80
2023-03-01T19:24:56.521Z,19.95
2023-03-01T19:27:27.018Z,23.38
2023-03-01T19:29:56.166Z,20.88
2023-03-01T19:32:34.953Z,22.40
2023-03-01T19:35:14.578Z,30.02
2023-03-01T19:37:41.294Z,18.48
2023-03-01T19:40:09.430Z,19.95
2023-03-01T19:42:40.847Z,18.13
2023-03-01T19:45:11.854Z,21.77
2023-03-01T19:47:42.350Z,24.73
2023-03-01T19:50:15.853Z,19.27
2023-03-01T19:52:46.102Z,24.92
2023-03-01T19:55:25.496Z,23.20
2023-03-01T19:57:59.299Z,18.63
2023-03-01T20:00:37.024Z,21.58
2023-03-01T20:03:08.664Z,22.85
2023-03-01T20:05:47.789Z,21.63
2023-03-01T20:08:17.284Z,22.25
2023-03-01T20:10:44.246Z,22.38
2023-03-01T20:13:11.003Z,22.42
2023-03-01T20:15:43.424Z,25.67
2023-03-01T20:18:14.129Z,20.50
2023-03-01T20:20:41.125Z,23.00
2023-03-01T20:23:07.771Z,26.02
2023-03-01T20:25:34.778Z,19.17
2023-03-01T20:28:13.398Z,20.75
2023-03-01T20:30:49.125Z,23.27
2023-03-01T20:33:19.382Z,22.35
2023-03-01T20:35:50.575Z,21.80
2023-03-01T20:38:18.268Z,26.00
2023-03-01T20:40:47.700Z,25.02
2023-03-01T20:43:14.565Z,25.83
2023-03-01T20:45:41.409Z,21.52
2023-03-01T20:48:14.711Z,23.25
2023-03-01T20:50:41.556Z,20.90
2023-03-01T20:53:21.553Z,18.20
2023-03-01T20:55:57.384Z,19.73
2023-03-01T20:58:35.507Z,20.52
2023-03-01T21:01:04.793Z,18.63
2023-03-01T21:03:32.403Z,17.33
2023-03-01T21:06:03.507Z,16.83
2023-03-01T21:08:30.677Z,16.30
2023-03-01T21:10:58.101Z,16.17
2023-03-01T21:13:26.841Z,16.00
2023-03-01T21:15:55.191Z,16.77
2023-03-01T21:18:28.478Z,15.40
2023-03-01T21:20:55.566Z,14.30
2023-03-01T21:23:22.192Z,14.05
2023-03-01T21:25:59.560Z,15.35
2023-03-01T21:28:28.510Z,14.55
2023-03-01T21:31:07.321Z,13.45
2023-03-01T21:33:35.004Z,12.77
2023-03-01T21:36:09.476Z,12.80
2023-03-01T21:38:39.475Z,14.05
2023-03-01T21:41:19.466Z,13.48
2023-03-01T21:43:48.464Z,14.30
2023-03-01T21:46:19.472Z,13.57
2023-03-01T21:48:47.520Z,14.30
2023-03-01T21:51:19.628Z,14.88
2023-03-01T21:56:21.492Z,16.08
2023-03-01T21:58:51.359Z,15.63
2023-03-01T22:01:29.795Z,14.32
2023-03-01T22:04:10.996Z,14.88
2023-03-01T22:06:39.748Z,15.07
2023-03-01T22:09:21.401Z,16.00
2023-03-01T22:11:54.079Z,14.13
2023-03-01T22:14:21.230Z,14.90
2023-03-01T22:16:48.594Z,15.02
2023-03-01T22:19:18.715Z,14.38
2023-03-01T22:21:47.638Z,15.10
2023-03-01T22:24:25.541Z,14.40
2023-03-01T22:26:53.881Z,15.40
2023-03-01T22:29:34.862Z,15.40
2023-03-01T22:32:02.365Z,15.02
2023-03-01T22:34:35.220Z,13.30
2023-03-01T22:37:02.627Z,15.07
2023-03-01T22:39:29.253Z,13.05
2023-03-01T22:42:03.426Z,14.55
2023-03-01T22:44:30.255Z,13.48
2023-03-01T22:46:56.968Z,14.18
2023-03-01T22:49:26.282Z,16.73
2023-03-01T22:51:53.127Z,15.43
2023-03-01T22:54:20.333Z,16.15
2023-03-01T22:56:47.382Z,16.23
2023-03-01T22:59:17.381Z,14.60
2023-03-01T23:01:46.469Z,15.88
2023-03-01T23:04:14.569Z,15.35
2023-03-01T23:06:41.255Z,15.70
2023-03-01T23:09:07.884Z,15.98
2023-03-01T23:11:34.518Z,13.63
2023-03-01T23:14:03.390Z,15.45
2023-03-01T23:16:38.435Z,14.25
2023-03-01T23:19:08.997Z,16.08
2023-03-01T23:21:36.043Z,13.05
2023-03-01T23:24:03.378Z,15.07
2023-03-01T23:26:30.891Z,15.63
2023-03-01T23:29:09.912Z,15.60
2023-03-01T23:31:47.797Z,17.67
2023-03-01T23:34:15.877Z,16.10
2023-03-01T23:36:44.897Z,13.60
2023-03-01T23:39:21.216Z,17.77
2023-03-01T23:41:59.962Z,18.90
2023-03-01T23:44:39.936Z,16.55
2023-03-01T23:47:15.373Z,20.27
2023-03-01T23:49:44.362Z,15.77
2023-03-01T23:52:14.258Z,17.13
2023-03-01T23:54:41.226Z,17.13
2023-03-01T23:57:15.481Z,16.20
2023-03-01T23:59:51.681Z,14.20
